createdAt,value
2022-10-30T09:44:27.302Z,28
2022-10-30T09:45:36.342Z,28
2022-10-30T09:46:14.763Z,28
2022-10-30T09:47:17.159Z,28
2022-10-30T09:48:14.763Z,28
2022-10-30T09:49:14.685Z,28
2022-10-30T09:50:14.860Z,32
2022-10-30T09:51:15.395Z,28
2022-10-30T09:52:14.800Z,32
2022-10-30T09:53:15.058Z,32
2022-10-30T09:54:14.753Z,24
2022-10-30T15:20:12.331Z,1156
2022-10-30T15:21:00.971Z,1096
2022-10-30T15:22:00.650Z,1036
2022-10-30T15:23:01.462Z,972
2022-10-30T15:24:00.755Z,916
2022-10-30T15:25:00.634Z,856
2022-10-30T15:26:09.121Z,800
2022-10-30T15:27:00.558Z,756
2022-10-30T15:28:01.619Z,716
2022-10-30T15:29:01.330Z,680
2022-10-30T15:30:00.775Z,644
2022-10-30T15:31:00.800Z,620
2022-10-30T15:34:24.435Z,504
2022-10-30T15:35:12.178Z,480
2022-10-30T15:36:13.520Z,448
2022-10-30T15:37:12.498Z,420
2022-10-30T15:38:11.978Z,400
2022-10-30T15:39:12.190Z,372
2022-10-30T15:41:12.196Z,324
2022-10-30T15:42:12.314Z,296
2022-10-30T15:43:12.490Z,276
2022-10-30T15:45:12.324Z,232
2022-10-30T15:46:12.526Z,212
2022-10-30T15:47:12.240Z,196
2022-10-30T15:48:12.548Z,180
2022-10-30T15:50:12.564Z,144
2022-10-30T15:51:12.679Z,132
2022-10-30T15:52:13.117Z,120
2022-10-30T15:53:12.608Z,108
2022-10-30T15:54:12.388Z,96
2022-10-30T15:55:12.596Z,88
2022-10-30T15:56:22.745Z,80
2022-10-30T15:58:12.514Z,60
2022-10-30T15:58:24.502Z,60
2022-10-30T15:59:23.183Z,52
2022-10-30T16:00:22.571Z,44
2022-10-30T16:01:23.344Z,40
2022-10-30T16:02:23.471Z,36
2022-10-30T16:03:22.701Z,28
2022-10-30T16:04:22.916Z,24
2022-10-30T16:05:22.707Z,20
2022-10-30T16:06:23.740Z,16
2022-10-30T16:09:23.681Z,12
2022-10-30T16:10:22.947Z,8
2022-10-30T16:11:23.154Z,8
2022-10-30T16:12:22.959Z,4
2022-10-30T16:13:23.586Z,4
2022-10-30T16:14:22.772Z,4
2022-10-30T16:15:23.288Z,0
2022-10-30T16:16:24.826Z,4
2022-10-30T16:17:23.501Z,4
2022-10-30T16:18:23.711Z,0
2022-10-30T16:19:29.217Z,0
2022-10-30T16:21:23.530Z,0
2022-10-30T16:22:23.121Z,0
2022-10-30T16:23:23.642Z,0
2022-10-30T16:24:23.546Z,0
2022-10-30T16:25:25.421Z,0
2022-10-30T16:26:23.050Z,0
2022-10-30T16:27:22.914Z,0
2022-10-30T16:28:23.037Z,0
2022-10-30T16:29:23.336Z,0
2022-10-30T16:30:23.144Z,0
2022-10-30T16:31:23.067Z,0
2022-10-30T16:32:22.937Z,0
2022-10-30T16:33:24.060Z,0
2022-10-30T16:34:23.279Z,0
2022-10-30T16:35:23.513Z,0
2022-10-30T16:36:23.254Z,0
2022-10-30T16:37:23.263Z,0
2022-10-30T16:38:23.014Z,0
2022-10-30T16:39:23.793Z,0
2022-10-30T16:40:23.373Z,0
2022-10-30T16:41:30.655Z,0
2022-10-30T16:42:23.359Z,0
2022-10-30T16:43:22.841Z,0
2022-10-30T16:44:23.383Z,0
2022-10-30T16:45:22.878Z,0
2022-10-30T16:46:22.928Z,0
2022-10-30T16:47:23.233Z,0
2022-10-30T16:48:23.412Z,0
2022-10-30T16:49:23.905Z,0
2022-10-30T16:50:23.764Z,0
2022-10-30T16:51:23.492Z,0
2022-10-30T16:52:23.765Z,0
2022-10-30T16:53:23.513Z,0
2022-10-30T16:54:23.294Z,0
2022-10-30T16:55:23.754Z,0
2022-10-30T16:56:23.583Z,0
2022-10-30T16:57:23.722Z,0
2022-10-30T16:58:24.053Z,0
2022-10-30T16:59:23.604Z,0
2022-10-30T17:00:31.653Z,0
2022-10-30T17:01:24.378Z,0
2022-10-30T17:02:24.821Z,0
2022-10-30T17:03:23.520Z,0
2022-10-30T17:04:23.922Z,0
2022-10-30T17:05:23.907Z,0
2022-10-30T17:06:23.339Z,0
2022-10-30T17:07:23.618Z,0
2022-10-30T17:08:23.800Z,0
2022-10-30T17:09:23.956Z,0
2022-10-30T17:10:24.586Z,0
2022-10-30T17:11:24.277Z,0
2022-10-30T17:12:23.766Z,0
2022-10-30T17:13:24.414Z,0
2022-10-30T17:14:23.745Z,0
2022-10-30T17:15:24.051Z,0
2022-10-30T17:16:31.359Z,0
2022-10-30T17:17:23.789Z,0
2022-10-30T17:18:24.132Z,0
2022-10-30T17:19:24.138Z,0
2022-10-30T17:20:29.812Z,0
2022-10-30T17:21:23.893Z,0
2022-10-30T17:22:24.391Z,0
2022-10-30T17:23:24.160Z,0
2022-10-30T17:24:24.182Z,0
2022-10-30T17:25:24.184Z,0
2022-10-30T17:26:25.349Z,0
2022-10-30T17:27:24.048Z,0
2022-10-30T17:28:23.983Z,0
2022-10-30T17:29:25.154Z,0
2022-10-30T17:30:24.290Z,0
2022-10-30T17:31:24.102Z,0
2022-10-30T17:32:24.547Z,0
2022-10-30T17:33:24.022Z,0
2022-10-30T17:34:24.058Z,0
2022-10-30T17:35:23.979Z,0
2022-10-30T17:36:24.219Z,0
2022-10-30T17:37:24.813Z,0
2022-10-30T17:38:23.981Z,0
2022-10-30T17:39:23.732Z,0
2022-10-30T17:40:24.656Z,0
2022-10-30T17:41:24.240Z,0
2022-10-30T17:42:24.493Z,0
2022-10-30T17:43:25.184Z,0
2022-10-30T17:44:25.399Z,0
2022-10-30T17:45:25.610Z,0
2022-10-30T17:46:27.217Z,0
2022-10-30T17:47:24.171Z,0
2022-10-30T17:48:24.121Z,0
2022-10-30T17:49:23.879Z,0
2022-10-30T17:50:24.463Z,0
2022-10-30T17:51:24.788Z,0
2022-10-30T17:52:24.181Z,0
2022-10-30T17:53:24.694Z,0
2022-10-30T17:54:24.082Z,0
2022-10-30T17:55:24.492Z,0
2022-10-30T17:56:24.233Z,0
2022-10-30T17:57:24.393Z,0
2022-10-30T17:58:24.031Z,0
2022-10-30T17:59:24.554Z,0
2022-10-30T18:00:24.668Z,0
2022-10-30T18:01:25.415Z,0
2022-10-30T18:02:24.931Z,0
2022-10-30T18:03:24.103Z,0
2022-10-30T18:04:27.603Z,0
2022-10-30T18:05:24.410Z,0
2022-10-30T18:06:24.999Z,0
2022-10-30T18:07:24.388Z,0
2022-10-30T18:08:24.168Z,0
2022-10-30T18:09:24.262Z,0
2022-10-30T18:10:25.121Z,0
2022-10-30T18:11:25.777Z,0
2022-10-30T18:12:24.762Z,0
2022-10-30T18:13:24.271Z,0
2022-10-30T18:14:24.480Z,0
2022-10-30T18:15:24.553Z,0
2022-10-30T18:16:24.445Z,0
2022-10-30T18:17:25.242Z,0
2022-10-30T18:18:24.562Z,0
2022-10-30T18:19:24.885Z,0
2022-10-30T18:20:24.348Z,0
2022-10-30T18:21:24.358Z,0
2022-10-30T18:22:24.479Z,0
2022-10-30T18:23:58.341Z,0
2022-10-30T18:24:24.962Z,0
2022-10-30T18:25:24.687Z,0
2022-10-30T18:26:24.801Z,0
2022-10-30T18:27:25.384Z,0
2022-10-30T18:28:25.299Z,0
2022-10-30T18:29:24.517Z,0
2022-10-30T18:30:24.539Z,0
2022-10-30T18:31:24.902Z,0
2022-10-30T18:32:24.611Z,0
2022-10-30T18:33:25.407Z,0
2022-10-30T18:34:24.618Z,0
2022-10-30T18:35:24.637Z,0
2022-10-30T18:36:24.711Z,0
2022-10-30T18:37:24.589Z,0
2022-10-30T18:38:25.048Z,0
2022-10-30T18:39:24.638Z,0
2022-10-30T18:40:29.142Z,0
2022-10-30T18:41:24.925Z,0
2022-10-30T18:42:24.590Z,0
2022-10-30T18:43:25.496Z,0
2022-10-30T18:44:25.313Z,0
2022-10-30T18:45:24.970Z,0
2022-10-30T18:46:25.110Z,0
2022-10-30T18:47:25.473Z,0
2022-10-30T18:48:25.064Z,0
2022-10-30T18:49:26.234Z,0
2022-10-30T18:50:25.303Z,0
2022-10-30T18:51:24.864Z,0
2022-10-30T18:52:25.287Z,0
2022-10-30T18:53:25.351Z,0
2022-10-30T18:54:25.137Z,0
2022-10-30T18:55:25.034Z,0
2022-10-30T18:56:25.321Z,0
2022-10-30T18:57:24.902Z,0
2022-10-30T18:58:25.124Z,0
2022-10-30T18:59:25.340Z,0
2022-10-30T19:00:25.380Z,0
2022-10-30T19:01:26.102Z,0
2022-10-30T19:02:25.798Z,0
2022-10-30T19:03:25.813Z,0
2022-10-30T19:04:29.732Z,0
2022-10-30T19:05:25.366Z,0
2022-10-30T19:06:24.932Z,0
2022-10-30T19:07:25.468Z,0
2022-10-30T19:08:25.219Z,0
2022-10-30T19:09:25.476Z,0
2022-10-30T19:10:26.062Z,0
2022-10-30T19:11:34.210Z,0
2022-10-30T19:12:26.149Z,0
2022-10-30T19:13:26.699Z,0
2022-10-30T19:14:26.128Z,0
2022-10-30T19:15:25.039Z,0
2022-10-30T19:16:25.757Z,0
2022-10-30T19:17:25.914Z,0
2022-10-30T19:18:25.363Z,0
2022-10-30T19:19:26.060Z,0
2022-10-30T19:21:08.103Z,0
2022-10-30T19:21:26.213Z,0
2022-10-30T19:22:25.298Z,0
2022-10-30T19:23:25.481Z,0
2022-10-30T19:24:25.547Z,0
2022-10-30T19:25:25.849Z,0
2022-10-30T19:26:25.901Z,0
2022-10-30T19:27:25.282Z,0
2022-10-30T19:28:25.972Z,0
2022-10-30T19:29:25.892Z,0
2022-10-30T19:30:26.026Z,0
2022-10-30T19:31:25.644Z,0
2022-10-30T19:32:25.641Z,0
2022-10-30T19:33:25.767Z,0
2022-10-30T19:34:25.645Z,0
2022-10-30T19:35:25.787Z,0
2022-10-30T19:36:25.902Z,0
2022-10-30T19:37:26.081Z,0
2022-10-30T19:38:25.744Z,0
2022-10-30T19:39:25.705Z,0
2022-10-30T19:40:25.379Z,0
2022-10-30T19:41:25.730Z,0
2022-10-30T19:42:26.115Z,0
2022-10-30T19:43:25.511Z,0
2022-10-30T19:44:25.669Z,0
2022-10-30T19:45:25.823Z,0
2022-10-30T19:46:25.827Z,0
2022-10-30T19:47:25.545Z,0
2022-10-30T19:49:05.969Z,0
2022-10-30T19:49:25.551Z,0
2022-10-30T19:50:26.119Z,0
2022-10-30T19:51:25.984Z,0
2022-10-30T19:52:32.031Z,0
2022-10-30T19:53:25.944Z,0
2022-10-30T19:54:25.933Z,0
2022-10-30T19:55:26.009Z,0
2022-10-30T19:56:25.964Z,0
2022-10-30T19:57:25.631Z,0
2022-10-30T19:58:31.786Z,0
2022-10-30T19:59:26.514Z,0
2022-10-30T20:00:26.348Z,0
2022-10-30T20:01:26.684Z,0
2022-10-30T20:02:26.838Z,0
2022-10-30T20:03:26.687Z,0
2022-10-30T20:04:26.821Z,0
2022-10-30T20:05:26.120Z,0
2022-10-30T20:06:26.036Z,0
2022-10-30T20:07:26.207Z,0
2022-10-30T20:08:26.475Z,0
2022-10-30T20:09:26.703Z,0
2022-10-30T20:10:26.281Z,0
2022-10-30T20:11:26.536Z,0
2022-10-30T20:12:25.763Z,0
2022-10-30T20:13:26.357Z,0
2022-10-30T20:14:26.490Z,0
2022-10-30T20:15:25.912Z,0
2022-10-30T20:16:26.057Z,0
2022-10-30T20:17:25.866Z,0
2022-10-30T20:18:26.020Z,0
2022-10-30T20:19:26.216Z,0
2022-10-30T20:20:26.190Z,0
2022-10-30T20:21:26.806Z,0
2022-10-30T20:22:33.169Z,0
2022-10-30T20:23:26.331Z,0
2022-10-30T20:24:26.655Z,0
2022-10-30T20:25:25.967Z,0
2022-10-30T20:26:26.051Z,0
2022-10-30T20:27:27.295Z,0
2022-10-30T20:28:26.822Z,0
2022-10-30T20:29:26.928Z,0
2022-10-30T20:30:26.696Z,0
2022-10-30T20:31:26.344Z,0
2022-10-30T20:32:26.438Z,0
2022-10-30T20:33:26.420Z,0
2022-10-30T20:34:26.269Z,0
2022-10-30T20:35:26.797Z,0
2022-10-30T20:36:26.400Z,0
2022-10-30T20:37:26.807Z,0
2022-10-30T20:38:26.392Z,0
2022-10-30T20:39:27.142Z,0
2022-10-30T20:40:26.690Z,0
2022-10-30T20:41:26.735Z,0
2022-10-30T20:42:26.663Z,0
2022-10-30T20:43:26.612Z,0
2022-10-30T20:44:26.547Z,0
2022-10-30T20:45:26.245Z,0
2022-10-30T20:46:26.908Z,0
2022-10-30T20:47:26.877Z,0
2022-10-30T20:48:26.654Z,0
2022-10-30T20:49:28.046Z,0
2022-10-30T20:50:27.539Z,0
2022-10-30T20:51:28.001Z,0
2022-10-30T20:52:27.349Z,0
2022-10-30T20:53:26.983Z,0
2022-10-30T20:54:26.969Z,0
2022-10-30T20:55:27.155Z,0
2022-10-30T20:56:27.232Z,0
2022-10-30T20:57:27.826Z,0
2022-10-30T20:58:27.859Z,0
2022-10-30T20:59:26.651Z,0
2022-10-30T21:00:27.413Z,0
2022-10-30T21:01:27.566Z,0
2022-10-30T21:02:28.288Z,0
2022-10-30T21:03:26.736Z,0
2022-10-30T21:04:26.542Z,0
2022-10-30T21:05:50.231Z,0
2022-10-30T21:06:26.580Z,0
2022-10-30T21:07:27.321Z,0
2022-10-30T21:08:27.126Z,0
2022-10-30T21:09:26.782Z,0
2022-10-30T21:10:32.906Z,0
2022-10-30T21:11:27.371Z,0
2022-10-30T21:12:27.423Z,0
2022-10-30T21:13:27.701Z,0
2022-10-30T21:14:26.600Z,0
2022-10-30T21:15:26.816Z,0
2022-10-30T21:16:26.616Z,0
2022-10-30T21:17:27.568Z,0
2022-10-30T21:18:26.544Z,0
2022-10-30T21:19:26.670Z,0
2022-10-30T21:20:27.121Z,0
2022-10-30T21:21:31.982Z,0
2022-10-30T21:22:26.999Z,0
2022-10-30T21:23:26.899Z,0
2022-10-30T21:24:26.774Z,0
2022-10-30T21:25:27.052Z,0
2022-10-30T21:26:27.248Z,0
2022-10-30T21:27:27.087Z,0
2022-10-30T21:28:28.320Z,0
2022-10-30T21:29:28.091Z,0
2022-10-30T21:30:27.163Z,0
2022-10-30T21:31:26.920Z,0
2022-10-30T21:32:26.689Z,0
2022-10-30T21:33:26.697Z,0
2022-10-30T21:34:27.104Z,0
2022-10-30T21:35:26.964Z,0
2022-10-30T21:36:27.265Z,0
2022-10-30T21:37:26.736Z,0
2022-10-30T21:38:26.749Z,0
2022-10-30T21:39:27.266Z,0
2022-10-30T21:40:27.409Z,0
2022-10-30T21:41:27.382Z,0
2022-10-30T21:43:27.620Z,0
2022-10-30T21:44:28.018Z,0
2022-10-30T21:45:26.889Z,0
2022-10-30T21:46:26.856Z,0
2022-10-30T21:47:27.671Z,0
2022-10-30T21:48:27.384Z,0
2022-10-30T21:49:27.213Z,0
2022-10-30T21:50:26.897Z,0
2022-10-30T21:51:26.925Z,0
2022-10-30T21:52:26.991Z,0
2022-10-30T21:53:26.916Z,0
2022-10-30T21:54:27.208Z,0
2022-10-30T21:55:27.705Z,0
2022-10-30T21:56:27.253Z,0
2022-10-30T21:57:27.417Z,0
2022-10-30T21:58:27.549Z,0
2022-10-30T21:59:27.701Z,0
2022-10-30T22:00:27.956Z,0
2022-10-30T22:01:28.238Z,0
2022-10-30T22:02:28.051Z,0
2022-10-30T22:03:27.577Z,0
2022-10-30T22:04:27.091Z,0
2022-10-30T22:05:27.066Z,0
2022-10-30T22:06:27.053Z,0
2022-10-30T22:07:27.054Z,0
2022-10-30T22:08:27.603Z,0
2022-10-30T22:09:27.133Z,0
2022-10-30T22:10:27.158Z,0
2022-10-30T22:11:27.100Z,0
2022-10-30T22:12:27.374Z,0
2022-10-30T22:13:27.643Z,0
2022-10-30T22:14:27.660Z,0
2022-10-30T22:15:27.545Z,0
2022-10-30T22:16:27.764Z,0
2022-10-30T22:17:29.414Z,0
